sensor_id;sensor_type;location;lat;lon;timestamp;temperature;humidity
62575;DHT22;53112;45.602;11.904;2023-03-31T00:02:03;23.30;45.60
62575;DHT22;53112;45.602;11.904;2023-03-31T00:04:39;23.40;45.60
62575;DHT22;53112;45.602;11.904;2023-03-31T00:07:14;23.30;45.60
62575;DHT22;53112;45.602;11.904;2023-03-31T00:09:41;23.40;45.50
62575;DHT22;53112;45.602;11.904;2023-03-31T00:12:11;23.40;45.50
62575;DHT22;53112;45.602;11.904;2023-03-31T00:14:39;23.40;45.50
62575;DHT22;53112;45.602;11.904;2023-03-31T00:17:05;23.40;45.50
62575;DHT22;53112;45.602;11.904;2023-03-31T00:19:31;23.40;45.50
62575;DHT22;53112;45.602;11.904;2023-03-31T00:21:58;23.40;45.50
62575;DHT22;53112;45.602;11.904;2023-03-31T00:24:28;23.30;45.50
62575;DHT22;53112;45.602;11.904;2023-03-31T00:27:02;23.40;45.60
62575;DHT22;53112;45.602;11.904;2023-03-31T00:29:29;23.30;45.70
62575;DHT22;53112;45.602;11.904;2023-03-31T00:31:56;23.30;45.70
62575;DHT22;53112;45.602;11.904;2023-03-31T00:34:25;23.20;45.70
62575;DHT22;53112;45.602;11.904;2023-03-31T00:36:51;23.30;45.60
62575;DHT22;53112;45.602;11.904;2023-03-31T00:39:22;23.20;45.70
62575;DHT22;53112;45.602;11.904;2023-03-31T00:41:53;23.20;45.70
62575;DHT22;53112;45.602;11.904;2023-03-31T00:44:29;23.20;45.60
62575;DHT22;53112;45.602;11.904;2023-03-31T00:47:05;23.30;45.50
62575;DHT22;53112;45.602;11.904;2023-03-31T00:49:55;23.30;45.60
62575;DHT22;53112;45.602;11.904;2023-03-31T00:52:32;23.30;45.70
62575;DHT22;53112;45.602;11.904;2023-03-31T00:55:07;23.30;45.60
62575;DHT22;53112;45.602;11.904;2023-03-31T00:57:37;23.20;45.60
62575;DHT22;53112;45.602;11.904;2023-03-31T01:00:08;23.20;45.60
62575;DHT22;53112;45.602;11.904;2023-03-31T01:02:46;23.30;45.60
62575;DHT22;53112;45.602;11.904;2023-03-31T01:05:38;23.30;45.60
62575;DHT22;53112;45.602;11.904;2023-03-31T01:08:06;23.20;45.70
62575;DHT22;53112;45.602;11.904;2023-03-31T01:10:36;23.20;45.70
62575;DHT22;53112;45.602;11.904;2023-03-31T01:13:08;23.20;45.80
62575;DHT22;53112;45.602;11.904;2023-03-31T01:15:36;23.20;45.80
62575;DHT22;53112;45.602;11.904;2023-03-31T01:18:03;23.20;45.80
62575;DHT22;53112;45.602;11.904;2023-03-31T01:39:41;23.20;45.70
62575;DHT22;53112;45.602;11.904;2023-03-31T01:42:14;23.20;45.70
62575;DHT22;53112;45.602;11.904;2023-03-31T01:48:05;23.20;45.70
62575;DHT22;53112;45.602;11.904;2023-03-31T01:50:31;23.20;45.70
62575;DHT22;53112;45.602;11.904;2023-03-31T01:53:10;23.20;45.80
62575;DHT22;53112;45.602;11.904;2023-03-31T01:55:54;23.20;45.80
62575;DHT22;53112;45.602;11.904;2023-03-31T01:58:29;23.20;45.90
62575;DHT22;53112;45.602;11.904;2023-03-31T02:01:17;23.20;45.90
62575;DHT22;53112;45.602;11.904;2023-03-31T02:03:51;23.20;45.90
62575;DHT22;53112;45.602;11.904;2023-03-31T02:06:22;23.20;45.90
62575;DHT22;53112;45.602;11.904;2023-03-31T02:09:07;23.20;45.80
62575;DHT22;53112;45.602;11.904;2023-03-31T02:11:34;23.20;45.90
62575;DHT22;53112;45.602;11.904;2023-03-31T02:14:02;23.20;45.90
62575;DHT22;53112;45.602;11.904;2023-03-31T02:16:32;23.10;45.80
62575;DHT22;53112;45.602;11.904;2023-03-31T02:19:03;23.10;45.70
62575;DHT22;53112;45.602;11.904;2023-03-31T02:21:31;23.20;45.70
62575;DHT22;53112;45.602;11.904;2023-03-31T02:24:01;23.10;45.60
62575;DHT22;53112;45.602;11.904;2023-03-31T02:26:34;23.10;45.70
62575;DHT22;53112;45.602;11.904;2023-03-31T02:29:01;23.10;45.70
62575;DHT22;53112;45.602;11.904;2023-03-31T02:31:47;23.10;45.80
62575;DHT22;53112;45.602;11.904;2023-03-31T02:34:14;23.20;45.80
62575;DHT22;53112;45.602;11.904;2023-03-31T02:36:42;23.20;45.80
62575;DHT22;53112;45.602;11.904;2023-03-31T02:39:13;23.10;45.80
62575;DHT22;53112;45.602;11.904;2023-03-31T02:41:40;23.10;45.70
62575;DHT22;53112;45.602;11.904;2023-03-31T02:44:08;23.10;45.70
62575;DHT22;53112;45.602;11.904;2023-03-31T02:46:35;23.10;45.60
62575;DHT22;53112;45.602;11.904;2023-03-31T02:49:03;23.10;45.60
62575;DHT22;53112;45.602;11.904;2023-03-31T03:07:52;23.10;45.60
62575;DHT22;53112;45.602;11.904;2023-03-31T03:10:43;23.10;45.40
62575;DHT22;53112;45.602;11.904;2023-03-31T03:18:56;23.10;45.70
62575;DHT22;53112;45.602;11.904;2023-03-31T03:21:23;23.10;45.80
62575;DHT22;53112;45.602;11.904;2023-03-31T03:23:49;23.10;45.80
62575;DHT22;53112;45.602;11.904;2023-03-31T03:26:16;23.10;45.80
62575;DHT22;53112;45.602;11.904;2023-03-31T03:28:49;23.10;45.90
62575;DHT22;53112;45.602;11.904;2023-03-31T03:31:16;23.10;45.80
62575;DHT22;53112;45.602;11.904;2023-03-31T03:33:42;23.10;45.80
62575;DHT22;53112;45.602;11.904;2023-03-31T03:36:08;23.10;45.80
62575;DHT22;53112;45.602;11.904;2023-03-31T03:38:34;23.10;45.80
62575;DHT22;53112;45.602;11.904;2023-03-31T03:41:01;23.10;45.70
62575;DHT22;53112;45.602;11.904;2023-03-31T03:43:27;23.10;45.80
62575;DHT22;53112;45.602;11.904;2023-03-31T03:45:53;23.10;45.70
62575;DHT22;53112;45.602;11.904;2023-03-31T03:48:19;23.10;45.70
62575;DHT22;53112;45.602;11.904;2023-03-31T03:50:48;23.00;45.70
62575;DHT22;53112;45.602;11.904;2023-03-31T03:53:14;23.10;45.70
62575;DHT22;53112;45.602;11.904;2023-03-31T03:55:40;23.00;45.70
62575;DHT22;53112;45.602;11.904;2023-03-31T03:58:06;23.10;45.70
62575;DHT22;53112;45.602;11.904;2023-03-31T04:00:32;23.10;45.70
62575;DHT22;53112;45.602;11.904;2023-03-31T04:02:59;23.10;45.70
62575;DHT22;53112;45.602;11.904;2023-03-31T04:05:26;23.10;45.70
62575;DHT22;53112;45.602;11.904;2023-03-31T04:07:52;23.00;45.70
62575;DHT22;53112;45.602;11.904;2023-03-31T04:10:18;23.00;45.70
62575;DHT22;53112;45.602;11.904;2023-03-31T04:12:44;23.00;45.60
62575;DHT22;53112;45.602;11.904;2023-03-31T04:15:10;23.00;45.60
62575;DHT22;53112;45.602;11.904;2023-03-31T04:17:36;23.00;45.60
62575;DHT22;53112;45.602;11.904;2023-03-31T04:20:05;23.10;45.70
62575;DHT22;53112;45.602;11.904;2023-03-31T04:22:33;23.00;45.70
62575;DHT22;53112;45.602;11.904;2023-03-31T04:25:10;23.00;45.80
62575;DHT22;53112;45.602;11.904;2023-03-31T04:27:45;23.00;45.70
62575;DHT22;53112;45.602;11.904;2023-03-31T04:30:15;23.00;45.70
62575;DHT22;53112;45.602;11.904;2023-03-31T04:32:54;23.00;45.80
62575;DHT22;53112;45.602;11.904;2023-03-31T04:35:22;23.00;45.80
62575;DHT22;53112;45.602;11.904;2023-03-31T04:37:50;23.00;45.70
62575;DHT22;53112;45.602;11.904;2023-03-31T04:40:17;23.00;45.70
62575;DHT22;53112;45.602;11.904;2023-03-31T04:42:44;23.00;45.80
62575;DHT22;53112;45.602;11.904;2023-03-31T04:45:10;23.00;45.70
62575;DHT22;53112;45.602;11.904;2023-03-31T04:47:37;23.00;45.70
62575;DHT22;53112;45.602;11.904;2023-03-31T04:50:03;22.90;45.70
62575;DHT22;53112;45.602;11.904;2023-03-31T04:52:29;23.00;45.70
62575;DHT22;53112;45.602;11.904;2023-03-31T04:54:55;23.00;45.70
62575;DHT22;53112;45.602;11.904;2023-03-31T04:57:21;23.00;45.70
62575;DHT22;53112;45.602;11.904;2023-03-31T04:59:47;23.00;45.70
62575;DHT22;53112;45.602;11.904;2023-03-31T05:02:13;23.00;45.80
62575;DHT22;53112;45.602;11.904;2023-03-31T05:04:40;22.90;45.90
62575;DHT22;53112;45.602;11.904;2023-03-31T05:07:06;22.90;45.90
62575;DHT22;53112;45.602;11.904;2023-03-31T05:09:32;22.90;45.90
62575;DHT22;53112;45.602;11.904;2023-03-31T05:11:58;23.00;45.90
62575;DHT22;53112;45.602;11.904;2023-03-31T05:14:24;23.00;45.90
62575;DHT22;53112;45.602;11.904;2023-03-31T05:16:50;22.90;45.80
62575;DHT22;53112;45.602;11.904;2023-03-31T05:19:16;22.90;45.80
62575;DHT22;53112;45.602;11.904;2023-03-31T05:21:42;22.90;45.80
62575;DHT22;53112;45.602;11.904;2023-03-31T05:24:08;22.90;45.80
62575;DHT22;53112;45.602;11.904;2023-03-31T05:26:34;22.90;45.80
62575;DHT22;53112;45.602;11.904;2023-03-31T05:29:00;22.90;45.80
62575;DHT22;53112;45.602;11.904;2023-03-31T05:31:26;22.90;45.80
62575;DHT22;53112;45.602;11.904;2023-03-31T05:33:52;22.90;45.90
62575;DHT22;53112;45.602;11.904;2023-03-31T05:36:18;22.90;45.90
62575;DHT22;53112;45.602;11.904;2023-03-31T05:38:48;22.90;45.90
62575;DHT22;53112;45.602;11.904;2023-03-31T05:41:14;22.90;46.00
62575;DHT22;53112;45.602;11.904;2023-03-31T05:43:41;22.90;46.00
62575;DHT22;53112;45.602;11.904;2023-03-31T05:46:08;22.90;46.00
62575;DHT22;53112;45.602;11.904;2023-03-31T05:48:34;22.90;46.20
62575;DHT22;53112;45.602;11.904;2023-03-31T05:51:01;22.90;46.40
62575;DHT22;53112;45.602;11.904;2023-03-31T05:53:28;22.90;46.60
62575;DHT22;53112;45.602;11.904;2023-03-31T05:55:58;22.90;46.80
62575;DHT22;53112;45.602;11.904;2023-03-31T05:58:25;22.90;46.90
62575;DHT22;53112;45.602;11.904;2023-03-31T06:01:00;22.90;46.80
62575;DHT22;53112;45.602;11.904;2023-03-31T06:03:26;22.90;46.90
62575;DHT22;53112;45.602;11.904;2023-03-31T06:05:52;22.90;46.70
62575;DHT22;53112;45.602;11.904;2023-03-31T06:08:20;23.00;46.80
62575;DHT22;53112;45.602;11.904;2023-03-31T06:10:49;23.00;46.70
62575;DHT22;53112;45.602;11.904;2023-03-31T06:13:15;22.90;46.80
62575;DHT22;53112;45.602;11.904;2023-03-31T06:15:41;23.00;46.80
62575;DHT22;53112;45.602;11.904;2023-03-31T06:18:10;23.00;46.80
62575;DHT22;53112;45.602;11.904;2023-03-31T06:20:36;23.00;46.70
62575;DHT22;53112;45.602;11.904;2023-03-31T06:23:02;23.00;46.80
62575;DHT22;53112;45.602;11.904;2023-03-31T06:25:28;23.00;46.70
62575;DHT22;53112;45.602;11.904;2023-03-31T06:27:53;23.00;46.60
62575;DHT22;53112;45.602;11.904;2023-03-31T06:30:19;23.00;46.70
62575;DHT22;53112;45.602;11.904;2023-03-31T06:32:46;23.00;46.60
62575;DHT22;53112;45.602;11.904;2023-03-31T06:35:11;23.00;46.50
62575;DHT22;53112;45.602;11.904;2023-03-31T06:37:37;23.00;46.40
62575;DHT22;53112;45.602;11.904;2023-03-31T06:40:03;23.00;46.40
62575;DHT22;53112;45.602;11.904;2023-03-31T06:42:30;23.00;46.40
62575;DHT22;53112;45.602;11.904;2023-03-31T06:44:56;23.00;46.40
62575;DHT22;53112;45.602;11.904;2023-03-31T06:47:22;23.00;46.30
62575;DHT22;53112;45.602;11.904;2023-03-31T06:49:50;23.00;46.30
62575;DHT22;53112;45.602;11.904;2023-03-31T06:52:16;23.00;46.30
62575;DHT22;53112;45.602;11.904;2023-03-31T06:54:42;23.00;46.20
62575;DHT22;53112;45.602;11.904;2023-03-31T06:57:08;23.00;46.20
62575;DHT22;53112;45.602;11.904;2023-03-31T06:59:34;23.00;46.30
62575;DHT22;53112;45.602;11.904;2023-03-31T07:02:00;23.00;46.20
62575;DHT22;53112;45.602;11.904;2023-03-31T07:04:26;23.00;46.20
62575;DHT22;53112;45.602;11.904;2023-03-31T07:06:52;23.00;46.20
62575;DHT22;53112;45.602;11.904;2023-03-31T07:09:21;23.00;46.20
62575;DHT22;53112;45.602;11.904;2023-03-31T07:11:48;23.00;46.20
62575;DHT22;53112;45.602;11.904;2023-03-31T07:14:14;23.00;46.10
62575;DHT22;53112;45.602;11.904;2023-03-31T07:16:40;23.00;46.10
62575;DHT22;53112;45.602;11.904;2023-03-31T07:19:06;23.00;46.10
62575;DHT22;53112;45.602;11.904;2023-03-31T07:21:33;23.00;46.00
62575;DHT22;53112;45.602;11.904;2023-03-31T07:23:59;23.00;46.10
62575;DHT22;53112;45.602;11.904;2023-03-31T07:26:25;23.00;46.00
62575;DHT22;53112;45.602;11.904;2023-03-31T07:28:51;22.90;45.90
62575;DHT22;53112;45.602;11.904;2023-03-31T07:31:21;23.00;45.90
62575;DHT22;53112;45.602;11.904;2023-03-31T07:33:47;22.90;45.90
62575;DHT22;53112;45.602;11.904;2023-03-31T07:36:22;23.00;45.90
62575;DHT22;53112;45.602;11.904;2023-03-31T07:38:48;23.00;46.00
62575;DHT22;53112;45.602;11.904;2023-03-31T07:41:17;23.00;46.10
62575;DHT22;53112;45.602;11.904;2023-03-31T07:43:44;23.00;46.10
62575;DHT22;53112;45.602;11.904;2023-03-31T07:48:44;23.00;46.10
62575;DHT22;53112;45.602;11.904;2023-03-31T07:51:13;23.00;46.10
62575;DHT22;53112;45.602;11.904;2023-03-31T07:53:39;23.00;46.20
62575;DHT22;53112;45.602;11.904;2023-03-31T07:56:05;23.00;46.20
62575;DHT22;53112;45.602;11.904;2023-03-31T07:58:31;22.90;46.20
62575;DHT22;53112;45.602;11.904;2023-03-31T08:00:57;23.00;46.10
62575;DHT22;53112;45.602;11.904;2023-03-31T08:03:23;23.00;46.10
62575;DHT22;53112;45.602;11.904;2023-03-31T08:05:53;22.90;46.10
62575;DHT22;53112;45.602;11.904;2023-03-31T08:08:19;23.00;46.10
62575;DHT22;53112;45.602;11.904;2023-03-31T08:10:47;23.00;46.00
62575;DHT22;53112;45.602;11.904;2023-03-31T08:13:13;23.00;45.90
62575;DHT22;53112;45.602;11.904;2023-03-31T08:15:39;23.00;46.00
62575;DHT22;53112;45.602;11.904;2023-03-31T08:18:05;23.00;46.00
62575;DHT22;53112;45.602;11.904;2023-03-31T08:20:31;23.00;46.00
62575;DHT22;53112;45.602;11.904;2023-03-31T08:22:57;23.00;46.00
62575;DHT22;53112;45.602;11.904;2023-03-31T08:25:23;23.00;46.00
62575;DHT22;53112;45.602;11.904;2023-03-31T08:27:49;23.00;46.00
62575;DHT22;53112;45.602;11.904;2023-03-31T08:30:17;23.00;46.00
62575;DHT22;53112;45.602;11.904;2023-03-31T08:32:43;23.00;46.00
62575;DHT22;53112;45.602;11.904;2023-03-31T08:35:10;23.00;46.00
62575;DHT22;53112;45.602;11.904;2023-03-31T08:37:37;23.00;45.90
62575;DHT22;53112;45.602;11.904;2023-03-31T08:40:04;23.00;46.00
62575;DHT22;53112;45.602;11.904;2023-03-31T08:42:45;23.00;45.90
62575;DHT22;53112;45.602;11.904;2023-03-31T08:45:44;23.00;45.90
62575;DHT22;53112;45.602;11.904;2023-03-31T08:50:51;23.00;45.90
62575;DHT22;53112;45.602;11.904;2023-03-31T08:53:27;23.00;45.90
62575;DHT22;53112;45.602;11.904;2023-03-31T08:55:56;23.00;45.80
62575;DHT22;53112;45.602;11.904;2023-03-31T09:03:36;23.00;45.80
62575;DHT22;53112;45.602;11.904;2023-03-31T09:06:11;23.00;45.70
62575;DHT22;53112;45.602;11.904;2023-03-31T09:08:42;23.00;45.70
62575;DHT22;53112;45.602;11.904;2023-03-31T09:11:17;23.00;45.80
62575;DHT22;53112;45.602;11.904;2023-03-31T09:14:27;23.10;45.70
62575;DHT22;53112;45.602;11.904;2023-03-31T09:17:05;23.10;45.60
62575;DHT22;53112;45.602;11.904;2023-03-31T09:19:56;23.00;45.80
62575;DHT22;53112;45.602;11.904;2023-03-31T09:22:30;23.10;45.60
62575;DHT22;53112;45.602;11.904;2023-03-31T09:27:39;23.10;45.70
62575;DHT22;53112;45.602;11.904;2023-03-31T09:32:41;23.10;45.80
62575;DHT22;53112;45.602;11.904;2023-03-31T09:35:21;23.10;45.60
62575;DHT22;53112;45.602;11.904;2023-03-31T09:37:48;23.10;45.60
62575;DHT22;53112;45.602;11.904;2023-03-31T09:40:22;23.10;45.60
62575;DHT22;53112;45.602;11.904;2023-03-31T09:42:56;23.10;45.40
62575;DHT22;53112;45.602;11.904;2023-03-31T09:45:22;23.10;45.40
62575;DHT22;53112;45.602;11.904;2023-03-31T09:47:54;23.10;45.50
62575;DHT22;53112;45.602;11.904;2023-03-31T09:50:22;23.10;45.30
62575;DHT22;53112;45.602;11.904;2023-03-31T09:52:52;23.10;45.50
62575;DHT22;53112;45.602;11.904;2023-03-31T09:55:28;23.10;45.40
62575;DHT22;53112;45.602;11.904;2023-03-31T09:57:59;23.10;45.10
62575;DHT22;53112;45.602;11.904;2023-03-31T10:00:26;23.10;45.60
62575;DHT22;53112;45.602;11.904;2023-03-31T10:02:54;23.10;45.50
62575;DHT22;53112;45.602;11.904;2023-03-31T10:10:44;23.10;45.40
62575;DHT22;53112;45.602;11.904;2023-03-31T10:13:24;23.10;45.50
62575;DHT22;53112;45.602;11.904;2023-03-31T10:16:02;23.10;45.70
62575;DHT22;53112;45.602;11.904;2023-03-31T10:18:37;23.10;45.50
62575;DHT22;53112;45.602;11.904;2023-03-31T10:21:05;23.10;45.40
62575;DHT22;53112;45.602;11.904;2023-03-31T10:23:34;23.10;45.70
62575;DHT22;53112;45.602;11.904;2023-03-31T10:26:01;23.10;45.60
62575;DHT22;53112;45.602;11.904;2023-03-31T10:28:31;23.10;45.70
62575;DHT22;53112;45.602;11.904;2023-03-31T10:30:59;23.10;45.70
62575;DHT22;53112;45.602;11.904;2023-03-31T10:33:28;23.10;45.50
62575;DHT22;53112;45.602;11.904;2023-03-31T10:35:57;23.10;45.50
62575;DHT22;53112;45.602;11.904;2023-03-31T10:38:28;23.10;45.60
62575;DHT22;53112;45.602;11.904;2023-03-31T10:40:58;23.10;45.70
62575;DHT22;53112;45.602;11.904;2023-03-31T10:43:29;23.10;46.20
62575;DHT22;53112;45.602;11.904;2023-03-31T10:46:00;23.10;46.20
62575;DHT22;53112;45.602;11.904;2023-03-31T10:48:31;23.10;45.90
62575;DHT22;53112;45.602;11.904;2023-03-31T10:51:01;23.20;46.20
62575;DHT22;53112;45.602;11.904;2023-03-31T10:53:28;23.10;46.00
62575;DHT22;53112;45.602;11.904;2023-03-31T10:56:26;23.20;46.10
62575;DHT22;53112;45.602;11.904;2023-03-31T10:59:23;23.20;46.20
62575;DHT22;53112;45.602;11.904;2023-03-31T11:07:52;23.20;46.70
62575;DHT22;53112;45.602;11.904;2023-03-31T11:23:52;23.20;46.50
62575;DHT22;53112;45.602;11.904;2023-03-31T11:29:05;23.20;46.80
62575;DHT22;53112;45.602;11.904;2023-03-31T11:45:15;23.20;46.20
62575;DHT22;53112;45.602;11.904;2023-03-31T11:47:42;23.30;46.10
62575;DHT22;53112;45.602;11.904;2023-03-31T11:50:13;23.30;45.90
62575;DHT22;53112;45.602;11.904;2023-03-31T11:53:18;23.30;45.90
62575;DHT22;53112;45.602;11.904;2023-03-31T11:55:36;23.30;46.10
62575;DHT22;53112;45.602;11.904;2023-03-31T11:58:27;23.30;46.40
62575;DHT22;53112;45.602;11.904;2023-03-31T12:01:15;23.30;46.50
62575;DHT22;53112;45.602;11.904;2023-03-31T12:06:20;23.30;46.60
62575;DHT22;53112;45.602;11.904;2023-03-31T12:09:14;23.40;46.40
62575;DHT22;53112;45.602;11.904;2023-03-31T12:11:45;23.40;46.50
62575;DHT22;53112;45.602;11.904;2023-03-31T12:17:08;23.40;46.30
62575;DHT22;53112;45.602;11.904;2023-03-31T12:22:26;23.40;46.40
62575;DHT22;53112;45.602;11.904;2023-03-31T12:24:54;23.40;46.20
62575;DHT22;53112;45.602;11.904;2023-03-31T12:27:39;23.40;46.20
62575;DHT22;53112;45.602;11.904;2023-03-31T12:30:14;23.40;46.00
62575;DHT22;53112;45.602;11.904;2023-03-31T12:35:28;23.40;46.20
62575;DHT22;53112;45.602;11.904;2023-03-31T12:59:40;23.40;46.20
62575;DHT22;53112;45.602;11.904;2023-03-31T13:02:23;23.40;46.10
62575;DHT22;53112;45.602;11.904;2023-03-31T13:04:49;23.40;46.20
62575;DHT22;53112;45.602;11.904;2023-03-31T13:09:47;23.40;46.00
62575;DHT22;53112;45.602;11.904;2023-03-31T13:12:22;23.40;45.90
62575;DHT22;53112;45.602;11.904;2023-03-31T13:14:51;23.40;45.90
62575;DHT22;53112;45.602;11.904;2023-03-31T13:17:34;23.40;45.70
62575;DHT22;53112;45.602;11.904;2023-03-31T13:22:46;23.40;46.00
62575;DHT22;53112;45.602;11.904;2023-03-31T13:27:56;23.40;45.90
62575;DHT22;53112;45.602;11.904;2023-03-31T13:35:37;23.40;45.70
62575;DHT22;53112;45.602;11.904;2023-03-31T13:52:04;23.30;45.50
62575;DHT22;53112;45.602;11.904;2023-03-31T14:11:17;23.40;45.90
62575;DHT22;53112;45.602;11.904;2023-03-31T14:16:28;23.30;45.90
62575;DHT22;53112;45.602;11.904;2023-03-31T14:19:10;23.30;45.90
62575;DHT22;53112;45.602;11.904;2023-03-31T14:21:47;23.30;45.80
62575;DHT22;53112;45.602;11.904;2023-03-31T14:31:37;23.30;45.90
62575;DHT22;53112;45.602;11.904;2023-03-31T14:36:54;23.30;45.90
62575;DHT22;53112;45.602;11.904;2023-03-31T14:39:26;23.30;45.90
62575;DHT22;53112;45.602;11.904;2023-03-31T14:41:57;23.30;45.90
62575;DHT22;53112;45.602;11.904;2023-03-31T14:44:24;23.20;46.00
62575;DHT22;53112;45.602;11.904;2023-03-31T14:46:51;23.30;46.00
62575;DHT22;53112;45.602;11.904;2023-03-31T14:49:25;23.30;45.90
62575;DHT22;53112;45.602;11.904;2023-03-31T14:51:53;23.30;45.80
62575;DHT22;53112;45.602;11.904;2023-03-31T14:54:20;23.20;45.80
62575;DHT22;53112;45.602;11.904;2023-03-31T14:57:04;23.30;45.70
62575;DHT22;53112;45.602;11.904;2023-03-31T14:59:33;23.30;45.50
62575;DHT22;53112;45.602;11.904;2023-03-31T15:02:02;23.30;45.50
62575;DHT22;53112;45.602;11.904;2023-03-31T15:04:30;23.30;45.60
62575;DHT22;53112;45.602;11.904;2023-03-31T15:07:00;23.30;45.70
62575;DHT22;53112;45.602;11.904;2023-03-31T15:09:29;23.30;45.70
62575;DHT22;53112;45.602;11.904;2023-03-31T15:12:00;23.30;45.80
62575;DHT22;53112;45.602;11.904;2023-03-31T15:14:33;23.20;46.00
62575;DHT22;53112;45.602;11.904;2023-03-31T15:16:59;23.30;46.00
62575;DHT22;53112;45.602;11.904;2023-03-31T15:19:28;23.20;46.10
62575;DHT22;53112;45.602;11.904;2023-03-31T15:24:27;23.30;46.00
62575;DHT22;53112;45.602;11.904;2023-03-31T15:29:39;23.20;45.90
62575;DHT22;53112;45.602;11.904;2023-03-31T15:32:13;23.20;46.00
62575;DHT22;53112;45.602;11.904;2023-03-31T15:34:40;23.20;46.00
62575;DHT22;53112;45.602;11.904;2023-03-31T15:37:13;23.20;46.00
62575;DHT22;53112;45.602;11.904;2023-03-31T15:39:44;23.20;46.00
62575;DHT22;53112;45.602;11.904;2023-03-31T15:42:12;23.20;46.00
62575;DHT22;53112;45.602;11.904;2023-03-31T15:47:32;23.20;46.10
62575;DHT22;53112;45.602;11.904;2023-03-31T15:50:11;23.20;46.10
62575;DHT22;53112;45.602;11.904;2023-03-31T15:52:47;23.20;46.10
62575;DHT22;53112;45.602;11.904;2023-03-31T15:57:51;23.20;46.30
62575;DHT22;53112;45.602;11.904;2023-03-31T16:00:44;23.20;46.20
62575;DHT22;53112;45.602;11.904;2023-03-31T16:03:35;23.20;46.30
62575;DHT22;53112;45.602;11.904;2023-03-31T16:06:15;23.20;46.40
62575;DHT22;53112;45.602;11.904;2023-03-31T16:08:47;23.20;46.40
62575;DHT22;53112;45.602;11.904;2023-03-31T16:11:23;23.20;46.50
62575;DHT22;53112;45.602;11.904;2023-03-31T16:13:55;23.20;46.50
62575;DHT22;53112;45.602;11.904;2023-03-31T16:16:26;23.20;46.50
62575;DHT22;53112;45.602;11.904;2023-03-31T16:19:07;23.20;46.50
62575;DHT22;53112;45.602;11.904;2023-03-31T16:21:39;23.20;46.60
62575;DHT22;53112;45.602;11.904;2023-03-31T16:24:06;23.20;46.50
62575;DHT22;53112;45.602;11.904;2023-03-31T16:26:32;23.20;46.50
62575;DHT22;53112;45.602;11.904;2023-03-31T16:28:59;23.20;46.60
62575;DHT22;53112;45.602;11.904;2023-03-31T16:31:37;23.20;46.50
62575;DHT22;53112;45.602;11.904;2023-03-31T16:34:09;23.20;46.60
62575;DHT22;53112;45.602;11.904;2023-03-31T16:36:36;23.20;46.60
62575;DHT22;53112;45.602;11.904;2023-03-31T16:39:03;23.20;46.60
62575;DHT22;53112;45.602;11.904;2023-03-31T16:41:31;23.20;46.60
62575;DHT22;53112;45.602;11.904;2023-03-31T16:43:57;23.20;46.60
62575;DHT22;53112;45.602;11.904;2023-03-31T16:46:24;23.20;46.60
62575;DHT22;53112;45.602;11.904;2023-03-31T16:48:51;23.20;46.60
62575;DHT22;53112;45.602;11.904;2023-03-31T16:51:17;23.20;46.60
62575;DHT22;53112;45.602;11.904;2023-03-31T16:53:44;23.20;46.60
62575;DHT22;53112;45.602;11.904;2023-03-31T16:56:12;23.20;46.50
62575;DHT22;53112;45.602;11.904;2023-03-31T16:58:39;23.20;46.50
62575;DHT22;53112;45.602;11.904;2023-03-31T17:01:06;23.10;46.50
62575;DHT22;53112;45.602;11.904;2023-03-31T17:03:34;23.20;47.00
62575;DHT22;53112;45.602;11.904;2023-03-31T17:06:10;22.90;47.60
62575;DHT22;53112;45.602;11.904;2023-03-31T17:08:36;22.70;48.10
62575;DHT22;53112;45.602;11.904;2023-03-31T17:11:09;22.60;48.40
62575;DHT22;53112;45.602;11.904;2023-03-31T17:13:40;22.50;48.60
62575;DHT22;53112;45.602;11.904;2023-03-31T17:16:10;22.40;48.50
62575;DHT22;53112;45.602;11.904;2023-03-31T17:18:36;22.40;48.80
62575;DHT22;53112;45.602;11.904;2023-03-31T17:21:20;22.40;49.00
62575;DHT22;53112;45.602;11.904;2023-03-31T17:23:46;22.40;49.00
62575;DHT22;53112;45.602;11.904;2023-03-31T17:26:13;22.40;49.10
62575;DHT22;53112;45.602;11.904;2023-03-31T17:28:39;22.40;49.10
62575;DHT22;53112;45.602;11.904;2023-03-31T17:31:16;22.40;49.20
62575;DHT22;53112;45.602;11.904;2023-03-31T17:33:43;22.40;49.10
62575;DHT22;53112;45.602;11.904;2023-03-31T17:36:09;22.40;49.20
62575;DHT22;53112;45.602;11.904;2023-03-31T17:38:36;22.30;49.30
62575;DHT22;53112;45.602;11.904;2023-03-31T17:41:06;22.30;49.20
62575;DHT22;53112;45.602;11.904;2023-03-31T17:43:32;22.30;49.20
62575;DHT22;53112;45.602;11.904;2023-03-31T17:46:01;22.30;49.20
62575;DHT22;53112;45.602;11.904;2023-03-31T17:48:28;22.30;49.30
62575;DHT22;53112;45.602;11.904;2023-03-31T17:50:54;22.30;49.30
62575;DHT22;53112;45.602;11.904;2023-03-31T17:53:20;22.30;49.20
62575;DHT22;53112;45.602;11.904;2023-03-31T17:55:46;22.30;49.20
62575;DHT22;53112;45.602;11.904;2023-03-31T17:58:12;22.30;49.10
62575;DHT22;53112;45.602;11.904;2023-03-31T18:00:39;22.30;49.00
62575;DHT22;53112;45.602;11.904;2023-03-31T18:03:05;22.30;49.10
62575;DHT22;53112;45.602;11.904;2023-03-31T18:05:30;22.50;48.60
62575;DHT22;53112;45.602;11.904;2023-03-31T18:07:58;22.50;48.40
62575;DHT22;53112;45.602;11.904;2023-03-31T18:10:24;22.60;48.20
62575;DHT22;53112;45.602;11.904;2023-03-31T18:12:50;22.60;48.10
62575;DHT22;53112;45.602;11.904;2023-03-31T18:15:16;22.70;47.90
62575;DHT22;53112;45.602;11.904;2023-03-31T18:17:42;22.70;47.90
62575;DHT22;53112;45.602;11.904;2023-03-31T18:20:08;22.70;48.00
62575;DHT22;53112;45.602;11.904;2023-03-31T18:22:34;22.80;48.00
62575;DHT22;53112;45.602;11.904;2023-03-31T18:25:00;22.80;47.90
62575;DHT22;53112;45.602;11.904;2023-03-31T18:27:26;22.80;47.80
62575;DHT22;53112;45.602;11.904;2023-03-31T18:29:52;22.80;47.90
62575;DHT22;53112;45.602;11.904;2023-03-31T18:32:18;22.90;47.80
62575;DHT22;53112;45.602;11.904;2023-03-31T18:34:44;22.90;47.70
62575;DHT22;53112;45.602;11.904;2023-03-31T18:37:10;22.90;47.70
62575;DHT22;53112;45.602;11.904;2023-03-31T18:39:36;22.90;47.60
62575;DHT22;53112;45.602;11.904;2023-03-31T18:42:02;22.90;47.70
62575;DHT22;53112;45.602;11.904;2023-03-31T18:44:28;22.90;47.70
62575;DHT22;53112;45.602;11.904;2023-03-31T18:46:54;22.90;47.70
62575;DHT22;53112;45.602;11.904;2023-03-31T18:49:21;22.90;47.70
62575;DHT22;53112;45.602;11.904;2023-03-31T18:51:47;22.90;47.70
62575;DHT22;53112;45.602;11.904;2023-03-31T18:54:13;22.90;47.50